sensor_id;sensor_type;location;lat;lon;timestamp;temperature;humidity
9861;DHT22;4969;52.304;4.968;2023-07-16T00:00:10;17.31;73.68
9861;DHT22;4969;52.304;4.968;2023-07-16T00:02:37;17.28;73.16
9861;DHT22;4969;52.304;4.968;2023-07-16T00:05:04;17.19;73.14
9861;DHT22;4969;52.304;4.968;2023-07-16T00:07:31;17.09;73.39
9861;DHT22;4969;52.304;4.968;2023-07-16T00:09:58;17.06;73.56
9861;DHT22;4969;52.304;4.968;2023-07-16T00:12:25;17.09;72.45
9861;DHT22;4969;52.304;4.968;2023-07-16T00:14:53;17.12;72.04
9861;DHT22;4969;52.304;4.968;2023-07-16T00:17:20;17.00;72.32
9861;DHT22;4969;52.304;4.968;2023-07-16T00:19:47;17.04;71.98
9861;DHT22;4969;52.304;4.968;2023-07-16T00:22:14;16.99;71.94
9861;DHT22;4969;52.304;4.968;2023-07-16T00:24:40;17.00;71.54
9861;DHT22;4969;52.304;4.968;2023-07-16T00:27:07;16.93;71.79
9861;DHT22;4969;52.304;4.968;2023-07-16T00:29:33;17.10;71.51
9861;DHT22;4969;52.304;4.968;2023-07-16T00:32:01;17.10;71.61
9861;DHT22;4969;52.304;4.968;2023-07-16T00:34:28;17.02;71.00
9861;DHT22;4969;52.304;4.968;2023-07-16T00:36:55;17.09;70.86
9861;DHT22;4969;52.304;4.968;2023-07-16T00:39:26;17.00;71.27
9861;DHT22;4969;52.304;4.968;2023-07-16T00:41:53;17.07;70.95
9861;DHT22;4969;52.304;4.968;2023-07-16T00:44:20;16.98;71.46
9861;DHT22;4969;52.304;4.968;2023-07-16T00:46:46;17.00;71.48
9861;DHT22;4969;52.304;4.968;2023-07-16T00:49:14;16.96;71.17
9861;DHT22;4969;52.304;4.968;2023-07-16T00:51:42;16.88;71.92
9861;DHT22;4969;52.304;4.968;2023-07-16T00:54:09;16.99;71.66
9861;DHT22;4969;52.304;4.968;2023-07-16T00:56:37;17.12;70.53
9861;DHT22;4969;52.304;4.968;2023-07-16T00:59:03;17.17;70.69
9861;DHT22;4969;52.304;4.968;2023-07-16T01:01:30;17.03;70.91
9861;DHT22;4969;52.304;4.968;2023-07-16T01:03:57;17.12;72.27
9861;DHT22;4969;52.304;4.968;2023-07-16T01:06:30;17.16;70.72
9861;DHT22;4969;52.304;4.968;2023-07-16T01:09:02;17.19;70.46
9861;DHT22;4969;52.304;4.968;2023-07-16T01:11:30;17.06;71.00
9861;DHT22;4969;52.304;4.968;2023-07-16T01:14:01;17.34;70.51
9861;DHT22;4969;52.304;4.968;2023-07-16T01:16:28;17.21;70.21
9861;DHT22;4969;52.304;4.968;2023-07-16T01:18:54;17.23;70.92
9861;DHT22;4969;52.304;4.968;2023-07-16T01:21:22;17.19;70.75
9861;DHT22;4969;52.304;4.968;2023-07-16T01:27:04;17.26;70.95
9861;DHT22;4969;52.304;4.968;2023-07-16T01:29:35;17.40;70.07
9861;DHT22;4969;52.304;4.968;2023-07-16T01:32:05;17.38;70.33
9861;DHT22;4969;52.304;4.968;2023-07-16T01:34:33;17.30;70.17
9861;DHT22;4969;52.304;4.968;2023-07-16T01:37:01;17.28;70.24
9861;DHT22;4969;52.304;4.968;2023-07-16T01:39:28;17.23;70.53
9861;DHT22;4969;52.304;4.968;2023-07-16T01:41:55;17.19;70.79
9861;DHT22;4969;52.304;4.968;2023-07-16T01:44:22;17.20;70.64
9861;DHT22;4969;52.304;4.968;2023-07-16T01:47:03;17.16;70.89
9861;DHT22;4969;52.304;4.968;2023-07-16T01:49:30;17.07;71.76
9861;DHT22;4969;52.304;4.968;2023-07-16T01:51:57;17.10;71.70
9861;DHT22;4969;52.304;4.968;2023-07-16T01:54:24;17.09;71.84
9861;DHT22;4969;52.304;4.968;2023-07-16T01:56:50;17.09;71.36
9861;DHT22;4969;52.304;4.968;2023-07-16T01:59:17;17.00;71.98
9861;DHT22;4969;52.304;4.968;2023-07-16T02:01:43;17.04;71.75
9861;DHT22;4969;52.304;4.968;2023-07-16T02:04:11;17.04;71.89
9861;DHT22;4969;52.304;4.968;2023-07-16T02:06:38;16.99;71.91
9861;DHT22;4969;52.304;4.968;2023-07-16T02:09:04;16.98;72.31
9861;DHT22;4969;52.304;4.968;2023-07-16T02:11:31;16.93;72.65
9861;DHT22;4969;52.304;4.968;2023-07-16T02:13:58;16.95;72.75
9861;DHT22;4969;52.304;4.968;2023-07-16T02:16:24;16.98;72.23
9861;DHT22;4969;52.304;4.968;2023-07-16T02:18:51;16.96;72.60
9861;DHT22;4969;52.304;4.968;2023-07-16T02:21:19;16.93;72.41
9861;DHT22;4969;52.304;4.968;2023-07-16T02:23:45;16.93;72.52
9861;DHT22;4969;52.304;4.968;2023-07-16T02:26:12;17.07;72.24
9861;DHT22;4969;52.304;4.968;2023-07-16T02:28:38;17.02;71.94
9861;DHT22;4969;52.304;4.968;2023-07-16T02:31:05;17.10;71.55
9861;DHT22;4969;52.304;4.968;2023-07-16T02:33:32;17.09;71.21
9861;DHT22;4969;52.304;4.968;2023-07-16T02:35:58;17.04;71.52
9861;DHT22;4969;52.304;4.968;2023-07-16T02:38:26;17.00;71.92
9861;DHT22;4969;52.304;4.968;2023-07-16T02:40:53;16.96;72.01
9861;DHT22;4969;52.304;4.968;2023-07-16T02:43:20;16.96;72.04
9861;DHT22;4969;52.304;4.968;2023-07-16T02:45:46;17.10;72.13
9861;DHT22;4969;52.304;4.968;2023-07-16T02:48:13;17.02;71.87
9861;DHT22;4969;52.304;4.968;2023-07-16T02:50:39;16.95;72.19
9861;DHT22;4969;52.304;4.968;2023-07-16T02:53:07;16.98;72.53
9861;DHT22;4969;52.304;4.968;2023-07-16T02:55:35;17.03;72.65
9861;DHT22;4969;52.304;4.968;2023-07-16T02:58:02;16.92;72.81
9861;DHT22;4969;52.304;4.968;2023-07-16T03:00:29;17.04;72.54
9861;DHT22;4969;52.304;4.968;2023-07-16T03:02:56;16.96;72.96
9861;DHT22;4969;52.304;4.968;2023-07-16T03:05:24;17.00;73.08
9861;DHT22;4969;52.304;4.968;2023-07-16T03:07:50;17.14;72.20
9861;DHT22;4969;52.304;4.968;2023-07-16T03:10:17;17.16;72.16
9861;DHT22;4969;52.304;4.968;2023-07-16T03:12:45;17.02;72.46
9861;DHT22;4969;52.304;4.968;2023-07-16T03:15:11;17.03;72.44
9861;DHT22;4969;52.304;4.968;2023-07-16T03:17:38;17.06;72.67
9861;DHT22;4969;52.304;4.968;2023-07-16T03:20:06;17.21;72.30
9861;DHT22;4969;52.304;4.968;2023-07-16T03:22:33;17.24;71.71
9861;DHT22;4969;52.304;4.968;2023-07-16T03:24:59;17.23;72.05
9861;DHT22;4969;52.304;4.968;2023-07-16T03:27:26;17.21;72.00
9861;DHT22;4969;52.304;4.968;2023-07-16T03:29:54;17.12;72.56
9861;DHT22;4969;52.304;4.968;2023-07-16T03:32:20;17.20;72.70
9861;DHT22;4969;52.304;4.968;2023-07-16T03:34:47;17.23;72.61
9861;DHT22;4969;52.304;4.968;2023-07-16T03:37:13;17.26;72.85
9861;DHT22;4969;52.304;4.968;2023-07-16T03:39:40;17.14;72.96
9861;DHT22;4969;52.304;4.968;2023-07-16T03:42:07;17.13;73.48
9861;DHT22;4969;52.304;4.968;2023-07-16T03:44:33;17.13;73.43
9861;DHT22;4969;52.304;4.968;2023-07-16T03:47:02;17.06;74.04
9861;DHT22;4969;52.304;4.968;2023-07-16T03:49:28;17.06;73.78
9861;DHT22;4969;52.304;4.968;2023-07-16T03:51:55;17.14;73.72
9861;DHT22;4969;52.304;4.968;2023-07-16T03:54:21;17.19;73.25
9861;DHT22;4969;52.304;4.968;2023-07-16T03:56:48;17.14;74.01
9861;DHT22;4969;52.304;4.968;2023-07-16T03:59:15;17.17;73.28
9861;DHT22;4969;52.304;4.968;2023-07-16T04:01:41;17.16;73.73
9861;DHT22;4969;52.304;4.968;2023-07-16T04:04:09;17.19;73.15
9861;DHT22;4969;52.304;4.968;2023-07-16T04:06:36;17.12;73.65
9861;DHT22;4969;52.304;4.968;2023-07-16T04:09:02;17.26;73.29
9861;DHT22;4969;52.304;4.968;2023-07-16T04:11:29;17.54;72.80
9861;DHT22;4969;52.304;4.968;2023-07-16T04:13:56;17.61;72.22
9861;DHT22;4969;52.304;4.968;2023-07-16T04:16:23;17.45;72.75
9861;DHT22;4969;52.304;4.968;2023-07-16T04:18:49;17.37;72.84
9861;DHT22;4969;52.304;4.968;2023-07-16T04:21:17;17.64;72.99
9861;DHT22;4969;52.304;4.968;2023-07-16T04:23:44;17.57;72.10
9861;DHT22;4969;52.304;4.968;2023-07-16T04:26:10;17.62;72.03
9861;DHT22;4969;52.304;4.968;2023-07-16T04:28:37;17.85;71.49
9861;DHT22;4969;52.304;4.968;2023-07-16T04:31:04;17.72;71.94
9861;DHT22;4969;52.304;4.968;2023-07-16T04:33:31;17.74;71.72
9861;DHT22;4969;52.304;4.968;2023-07-16T04:35:57;17.95;71.27
9861;DHT22;4969;52.304;4.968;2023-07-16T04:38:25;18.14;71.46
9861;DHT22;4969;52.304;4.968;2023-07-16T04:40:55;18.59;70.36
9861;DHT22;4969;52.304;4.968;2023-07-16T04:43:21;18.47;69.48
9861;DHT22;4969;52.304;4.968;2023-07-16T04:45:48;18.86;68.83
9861;DHT22;4969;52.304;4.968;2023-07-16T04:48:15;18.95;67.01
9861;DHT22;4969;52.304;4.968;2023-07-16T04:50:41;19.24;68.01
9861;DHT22;4969;52.304;4.968;2023-07-16T04:53:08;19.19;67.62
9861;DHT22;4969;52.304;4.968;2023-07-16T04:55:37;18.92;67.38
9861;DHT22;4969;52.304;4.968;2023-07-16T04:58:04;19.33;66.78
9861;DHT22;4969;52.304;4.968;2023-07-16T05:00:31;19.23;67.14
9861;DHT22;4969;52.304;4.968;2023-07-16T05:02:58;19.10;67.21
9861;DHT22;4969;52.304;4.968;2023-07-16T05:05:24;19.00;65.98
9861;DHT22;4969;52.304;4.968;2023-07-16T05:07:51;19.58;66.21
9861;DHT22;4969;52.304;4.968;2023-07-16T05:10:18;19.58;64.83
9861;DHT22;4969;52.304;4.968;2023-07-16T05:12:46;19.54;65.20
9861;DHT22;4969;52.304;4.968;2023-07-16T05:15:12;20.13;64.48
9861;DHT22;4969;52.304;4.968;2023-07-16T05:17:39;19.79;63.45
9861;DHT22;4969;52.304;4.968;2023-07-16T05:20:07;19.86;64.43
9861;DHT22;4969;52.304;4.968;2023-07-16T05:22:34;19.85;63.72
9861;DHT22;4969;52.304;4.968;2023-07-16T05:25:01;19.54;63.85
9861;DHT22;4969;52.304;4.968;2023-07-16T05:27:28;19.42;64.88
9861;DHT22;4969;52.304;4.968;2023-07-16T05:29:56;19.69;63.98
9861;DHT22;4969;52.304;4.968;2023-07-16T05:32:22;19.35;64.12
9861;DHT22;4969;52.304;4.968;2023-07-16T05:34:49;20.00;63.39
9861;DHT22;4969;52.304;4.968;2023-07-16T05:37:15;19.71;63.69
9861;DHT22;4969;52.304;4.968;2023-07-16T05:39:42;19.66;63.16
9861;DHT22;4969;52.304;4.968;2023-07-16T05:42:09;19.52;63.15
9861;DHT22;4969;52.304;4.968;2023-07-16T05:44:35;19.82;63.83
9861;DHT22;4969;52.304;4.968;2023-07-16T05:47:04;19.58;63.20
9861;DHT22;4969;52.304;4.968;2023-07-16T05:49:31;20.03;62.78
9861;DHT22;4969;52.304;4.968;2023-07-16T05:51:57;20.17;61.70
9861;DHT22;4969;52.304;4.968;2023-07-16T05:54:24;20.27;62.04
9861;DHT22;4969;52.304;4.968;2023-07-16T05:56:50;20.27;61.44
9861;DHT22;4969;52.304;4.968;2023-07-16T05:59:17;20.41;61.26
9861;DHT22;4969;52.304;4.968;2023-07-16T06:01:43;20.10;60.99
9861;DHT22;4969;52.304;4.968;2023-07-16T06:04:11;19.99;62.04
9861;DHT22;4969;52.304;4.968;2023-07-16T06:06:38;20.26;61.78
9861;DHT22;4969;52.304;4.968;2023-07-16T06:09:05;20.06;60.86
9861;DHT22;4969;52.304;4.968;2023-07-16T06:11:32;20.24;61.91
9861;DHT22;4969;52.304;4.968;2023-07-16T06:13:59;20.16;61.68
9861;DHT22;4969;52.304;4.968;2023-07-16T06:16:25;20.13;62.22
9861;DHT22;4969;52.304;4.968;2023-07-16T06:18:52;20.06;61.89
9861;DHT22;4969;52.304;4.968;2023-07-16T06:21:20;19.97;62.48
9861;DHT22;4969;52.304;4.968;2023-07-16T06:23:46;20.40;62.17
9861;DHT22;4969;52.304;4.968;2023-07-16T06:26:13;20.07;61.55
9861;DHT22;4969;52.304;4.968;2023-07-16T06:28:39;20.48;61.43
9861;DHT22;4969;52.304;4.968;2023-07-16T06:31:06;20.40;60.72
9861;DHT22;4969;52.304;4.968;2023-07-16T06:33:33;20.65;60.63
9861;DHT22;4969;52.304;4.968;2023-07-16T06:35:59;20.43;61.36
9861;DHT22;4969;52.304;4.968;2023-07-16T06:38:27;20.45;60.83
9861;DHT22;4969;52.304;4.968;2023-07-16T06:40:55;20.67;60.74
9861;DHT22;4969;52.304;4.968;2023-07-16T06:43:21;20.62;61.04
9861;DHT22;4969;52.304;4.968;2023-07-16T06:45:49;20.65;60.08
9861;DHT22;4969;52.304;4.968;2023-07-16T06:48:16;20.51;61.08
9861;DHT22;4969;52.304;4.968;2023-07-16T06:50:42;20.67;59.32
9861;DHT22;4969;52.304;4.968;2023-07-16T06:53:09;20.85;59.38
9861;DHT22;4969;52.304;4.968;2023-07-16T06:55:37;21.02;59.13
9861;DHT22;4969;52.304;4.968;2023-07-16T06:58:04;20.68;59.76
9861;DHT22;4969;52.304;4.968;2023-07-16T07:00:30;20.75;59.61
9861;DHT22;4969;52.304;4.968;2023-07-16T07:02:57;20.72;60.11
9861;DHT22;4969;52.304;4.968;2023-07-16T07:05:24;20.79;59.80
9861;DHT22;4969;52.304;4.968;2023-07-16T07:07:50;20.98;59.11
9861;DHT22;4969;52.304;4.968;2023-07-16T07:10:17;20.78;59.98
9861;DHT22;4969;52.304;4.968;2023-07-16T07:12:45;20.65;60.16
9861;DHT22;4969;52.304;4.968;2023-07-16T07:15:11;20.55;60.84
9861;DHT22;4969;52.304;4.968;2023-07-16T07:17:38;20.68;60.21
9861;DHT22;4969;52.304;4.968;2023-07-16T07:20:06;20.52;61.00
9861;DHT22;4969;52.304;4.968;2023-07-16T07:22:33;20.92;60.49
9861;DHT22;4969;52.304;4.968;2023-07-16T07:25:00;21.02;59.96
9861;DHT22;4969;52.304;4.968;2023-07-16T07:27:26;20.92;60.14
9861;DHT22;4969;52.304;4.968;2023-07-16T07:29:54;20.96;59.89
9861;DHT22;4969;52.304;4.968;2023-07-16T07:32:21;20.99;59.75
9861;DHT22;4969;52.304;4.968;2023-07-16T07:34:48;20.78;60.58
9861;DHT22;4969;52.304;4.968;2023-07-16T07:37:15;20.72;61.04
9861;DHT22;4969;52.304;4.968;2023-07-16T07:39:41;20.96;60.83
9861;DHT22;4969;52.304;4.968;2023-07-16T07:42:08;21.00;60.18
9861;DHT22;4969;52.304;4.968;2023-07-16T07:44:35;20.99;59.83
9861;DHT22;4969;52.304;4.968;2023-07-16T07:47:03;21.09;60.11
9861;DHT22;4969;52.304;4.968;2023-07-16T07:49:30;20.92;60.12
9861;DHT22;4969;52.304;4.968;2023-07-16T07:51:56;21.06;60.01
9861;DHT22;4969;52.304;4.968;2023-07-16T07:54:23;20.96;60.26
9861;DHT22;4969;52.304;4.968;2023-07-16T07:56:50;21.09;60.32
9861;DHT22;4969;52.304;4.968;2023-07-16T07:59:16;21.16;59.62
9861;DHT22;4969;52.304;4.968;2023-07-16T08:01:43;21.37;59.24
9861;DHT22;4969;52.304;4.968;2023-07-16T08:04:11;21.18;59.82
9861;DHT22;4969;52.304;4.968;2023-07-16T08:06:37;21.02;60.35
9861;DHT22;4969;52.304;4.968;2023-07-16T08:09:04;21.07;59.41
9861;DHT22;4969;52.304;4.968;2023-07-16T08:11:31;21.07;59.74
9861;DHT22;4969;52.304;4.968;2023-07-16T08:13:58;21.04;59.98
9861;DHT22;4969;52.304;4.968;2023-07-16T08:16:24;21.37;59.31
9861;DHT22;4969;52.304;4.968;2023-07-16T08:18:51;21.59;58.20
9861;DHT22;4969;52.304;4.968;2023-07-16T08:21:19;21.30;58.86
9861;DHT22;4969;52.304;4.968;2023-07-16T08:23:46;21.62;58.77
9861;DHT22;4969;52.304;4.968;2023-07-16T08:26:13;21.57;59.03
9861;DHT22;4969;52.304;4.968;2023-07-16T08:28:39;21.48;58.32
9861;DHT22;4969;52.304;4.968;2023-07-16T08:31:06;21.20;59.64
9861;DHT22;4969;52.304;4.968;2023-07-16T08:33:33;21.11;60.11
9861;DHT22;4969;52.304;4.968;2023-07-16T08:35:59;21.28;59.51
9861;DHT22;4969;52.304;4.968;2023-07-16T08:38:27;21.17;58.89
9861;DHT22;4969;52.304;4.968;2023-07-16T08:40:54;21.26;58.62
9861;DHT22;4969;52.304;4.968;2023-07-16T08:43:21;20.85;60.80
9861;DHT22;4969;52.304;4.968;2023-07-16T08:45:49;21.06;60.43
9861;DHT22;4969;52.304;4.968;2023-07-16T08:48:16;20.92;60.15
9861;DHT22;4969;52.304;4.968;2023-07-16T08:50:46;20.88;60.62
9861;DHT22;4969;52.304;4.968;2023-07-16T08:53:14;20.92;60.38
9861;DHT22;4969;52.304;4.968;2023-07-16T08:55:43;21.17;60.29
9861;DHT22;4969;52.304;4.968;2023-07-16T08:58:11;21.24;59.84
9861;DHT22;4969;52.304;4.968;2023-07-16T09:00:40;21.43;59.52
9861;DHT22;4969;52.304;4.968;2023-07-16T09:03:07;21.41;58.97
9861;DHT22;4969;52.304;4.968;2023-07-16T09:05:34;21.28;60.05
9861;DHT22;4969;52.304;4.968;2023-07-16T09:08:02;21.43;59.41
9861;DHT22;4969;52.304;4.968;2023-07-16T09:10:29;21.20;59.84
9861;DHT22;4969;52.304;4.968;2023-07-16T09:12:58;21.40;59.26
9861;DHT22;4969;52.304;4.968;2023-07-16T09:15:26;21.68;58.31
9861;DHT22;4969;52.304;4.968;2023-07-16T09:17:54;21.43;58.69
9861;DHT22;4969;52.304;4.968;2023-07-16T09:20:21;21.55;59.21
9861;DHT22;4969;52.304;4.968;2023-07-16T09:22:49;21.57;59.07
9861;DHT22;4969;52.304;4.968;2023-07-16T09:25:16;21.86;58.22
9861;DHT22;4969;52.304;4.968;2023-07-16T09:27:43;21.98;57.85
9861;DHT22;4969;52.304;4.968;2023-07-16T09:30:16;21.93;58.39
9861;DHT22;4969;52.304;4.968;2023-07-16T09:32:42;21.69;59.36
9861;DHT22;4969;52.304;4.968;2023-07-16T09:35:10;22.31;57.47
9861;DHT22;4969;52.304;4.968;2023-07-16T09:37:37;22.24;58.05
9861;DHT22;4969;52.304;4.968;2023-07-16T09:40:05;22.31;57.75
9861;DHT22;4969;52.304;4.968;2023-07-16T09:42:36;22.24;57.45
9861;DHT22;4969;52.304;4.968;2023-07-16T09:45:05;22.38;57.33
9861;DHT22;4969;52.304;4.968;2023-07-16T09:47:33;22.17;57.87
9861;DHT22;4969;52.304;4.968;2023-07-16T09:50:00;21.95;57.76
9861;DHT22;4969;52.304;4.968;2023-07-16T09:52:27;21.95;57.94
9861;DHT22;4969;52.304;4.968;2023-07-16T09:54:55;21.83;58.34
9861;DHT22;4969;52.304;4.968;2023-07-16T09:57:23;21.88;58.61
9861;DHT22;4969;52.304;4.968;2023-07-16T09:59:52;22.10;57.27
9861;DHT22;4969;52.304;4.968;2023-07-16T10:02:20;21.68;58.21
9861;DHT22;4969;52.304;4.968;2023-07-16T10:04:48;21.81;57.93
9861;DHT22;4969;52.304;4.968;2023-07-16T10:07:19;21.79;58.07
9861;DHT22;4969;52.304;4.968;2023-07-16T10:09:51;21.71;58.50
9861;DHT22;4969;52.304;4.968;2023-07-16T10:12:20;21.73;58.55
9861;DHT22;4969;52.304;4.968;2023-07-16T10:14:48;21.91;57.80
9861;DHT22;4969;52.304;4.968;2023-07-16T10:17:16;21.57;58.38
9861;DHT22;4969;52.304;4.968;2023-07-16T10:19:48;21.43;58.75
9861;DHT22;4969;52.304;4.968;2023-07-16T10:22:15;21.45;59.42
9861;DHT22;4969;52.304;4.968;2023-07-16T10:24:42;21.72;58.86
9861;DHT22;4969;52.304;4.968;2023-07-16T10:27:09;21.69;58.63
9861;DHT22;4969;52.304;4.968;2023-07-16T10:29:35;22.19;57.83
9861;DHT22;4969;52.304;4.968;2023-07-16T10:32:02;22.13;57.95
9861;DHT22;4969;52.304;4.968;2023-07-16T10:34:34;22.02;57.20
9861;DHT22;4969;52.304;4.968;2023-07-16T10:37:03;22.26;57.15
9861;DHT22;4969;52.304;4.968;2023-07-16T10:39:30;22.37;57.08
9861;DHT22;4969;52.304;4.968;2023-07-16T10:41:56;22.27;56.78
9861;DHT22;4969;52.304;4.968;2023-07-16T10:44:23;22.36;56.08
9861;DHT22;4969;52.304;4.968;2023-07-16T10:46:50;22.12;56.93
9861;DHT22;4969;52.304;4.968;2023-07-16T10:49:26;22.40;56.47
9861;DHT22;4969;52.304;4.968;2023-07-16T10:51:53;22.64;56.86
9861;DHT22;4969;52.304;4.968;2023-07-16T10:54:21;22.82;55.36
9861;DHT22;4969;52.304;4.968;2023-07-16T10:56:49;22.95;54.84
9861;DHT22;4969;52.304;4.968;2023-07-16T10:59:17;23.12;53.78
9861;DHT22;4969;52.304;4.968;2023-07-16T11:01:43;23.40;52.88
9861;DHT22;4969;52.304;4.968;2023-07-16T11:04:10;23.22;52.60
9861;DHT22;4969;52.304;4.968;2023-07-16T11:06:37;23.03;50.09
9861;DHT22;4969;52.304;4.968;2023-07-16T11:09:07;22.96;51.62
9861;DHT22;4969;52.304;4.968;2023-07-16T11:11:35;22.67;51.57
9861;DHT22;4969;52.304;4.968;2023-07-16T11:14:04;22.85;51.51
9861;DHT22;4969;52.304;4.968;2023-07-16T11:16:33;22.78;51.77
9861;DHT22;4969;52.304;4.968;2023-07-16T11:19:01;22.88;52.33
9861;DHT22;4969;52.304;4.968;2023-07-16T11:21:28;23.02;52.27
9861;DHT22;4969;52.304;4.968;2023-07-16T11:23:55;22.95;51.65
9861;DHT22;4969;52.304;4.968;2023-07-16T11:26:22;22.83;51.87
9861;DHT22;4969;52.304;4.968;2023-07-16T11:28:51;22.79;51.93
9861;DHT22;4969;52.304;4.968;2023-07-16T11:31:18;22.89;51.01
9861;DHT22;4969;52.304;4.968;2023-07-16T11:33:45;22.82;51.16
9861;DHT22;4969;52.304;4.968;2023-07-16T11:36:11;23.18;50.67
9861;DHT22;4969;52.304;4.968;2023-07-16T11:38:39;23.12;49.49
9861;DHT22;4969;52.304;4.968;2023-07-16T11:41:05;23.04;49.89
9861;DHT22;4969;52.304;4.968;2023-07-16T11:43:34;22.93;49.62
9861;DHT22;4969;52.304;4.968;2023-07-16T11:46:03;23.00;50.45
9861;DHT22;4969;52.304;4.968;2023-07-16T11:48:29;23.00;50.72
9861;DHT22;4969;52.304;4.968;2023-07-16T11:50:56;23.09;51.08
9861;DHT22;4969;52.304;4.968;2023-07-16T11:53:23;23.31;50.53
9861;DHT22;4969;52.304;4.968;2023-07-16T11:55:49;23.26;49.62
9861;DHT22;4969;52.304;4.968;2023-07-16T11:58:16;23.23;49.44
9861;DHT22;4969;52.304;4.968;2023-07-16T12:00:42;23.27;50.12
9861;DHT22;4969;52.304;4.968;2023-07-16T12:03:10;23.41;49.94
9861;DHT22;4969;52.304;4.968;2023-07-16T12:05:37;23.38;49.51
9861;DHT22;4969;52.304;4.968;2023-07-16T12:08:04;23.38;49.06
9861;DHT22;4969;52.304;4.968;2023-07-16T12:10:31;23.31;49.28
9861;DHT22;4969;52.304;4.968;2023-07-16T12:12:57;23.61;48.27
9861;DHT22;4969;52.304;4.968;2023-07-16T12:15:24;23.85;47.45
9861;DHT22;4969;52.304;4.968;2023-07-16T12:17:51;23.68;46.87
9861;DHT22;4969;52.304;4.968;2023-07-16T12:20:19;24.02;47.64
9861;DHT22;4969;52.304;4.968;2023-07-16T12:22:45;23.96;46.82
9861;DHT22;4969;52.304;4.968;2023-07-16T12:25:12;23.86;47.42
9861;DHT22;4969;52.304;4.968;2023-07-16T12:27:38;23.55;47.23
9861;DHT22;4969;52.304;4.968;2023-07-16T12:30:06;23.47;47.23
9861;DHT22;4969;52.304;4.968;2023-07-16T12:32:33;23.26;47.40
9861;DHT22;4969;52.304;4.968;2023-07-16T12:35:00;23.41;47.88
9861;DHT22;4969;52.304;4.968;2023-07-16T12:37:28;23.38;46.72
9861;DHT22;4969;52.304;4.968;2023-07-16T12:39:54;23.37;48.06
9861;DHT22;4969;52.304;4.968;2023-07-16T12:42:21;23.51;47.17
9861;DHT22;4969;52.304;4.968;2023-07-16T12:44:48;23.41;47.22
9861;DHT22;4969;52.304;4.968;2023-07-16T12:47:15;23.61;47.83
9861;DHT22;4969;52.304;4.968;2023-07-16T12:49:42;23.67;47.37
9861;DHT22;4969;52.304;4.968;2023-07-16T12:52:08;23.73;47.60
9861;DHT22;4969;52.304;4.968;2023-07-16T12:54:36;23.69;47.34
9861;DHT22;4969;52.304;4.968;2023-07-16T12:57:04;23.89;47.99
9861;DHT22;4969;52.304;4.968;2023-07-16T12:59:30;24.01;47.39
9861;DHT22;4969;52.304;4.968;2023-07-16T13:01:57;23.77;47.88
9861;DHT22;4969;52.304;4.968;2023-07-16T13:04:23;23.75;46.81
9861;DHT22;4969;52.304;4.968;2023-07-16T13:06:50;23.93;48.20
9861;DHT22;4969;52.304;4.968;2023-07-16T13:09:17;24.02;48.21
9861;DHT22;4969;52.304;4.968;2023-07-16T13:11:45;23.53;48.48
9861;DHT22;4969;52.304;4.968;2023-07-16T13:14:11;23.71;48.98
9861;DHT22;4969;52.304;4.968;2023-07-16T13:16:38;23.91;48.97
9861;DHT22;4969;52.304;4.968;2023-07-16T13:19:04;23.82;48.75
9861;DHT22;4969;52.304;4.968;2023-07-16T13:21:31;23.69;49.34
9861;DHT22;4969;52.304;4.968;2023-07-16T13:23:57;23.75;48.89
9861;DHT22;4969;52.304;4.968;2023-07-16T13:26:24;23.88;47.94
9861;DHT22;4969;52.304;4.968;2023-07-16T13:28:52;24.09;49.78
9861;DHT22;4969;52.304;4.968;2023-07-16T13:31:19;23.62;47.60
9861;DHT22;4969;52.304;4.968;2023-07-16T13:33:45;23.93;48.75
9861;DHT22;4969;52.304;4.968;2023-07-16T13:36:12;23.71;46.58
9861;DHT22;4969;52.304;4.968;2023-07-16T13:38:38;23.58;46.53
9861;DHT22;4969;52.304;4.968;2023-07-16T13:41:05;23.62;46.87
9861;DHT22;4969;52.304;4.968;2023-07-16T13:43:31;24.08;48.71
9861;DHT22;4969;52.304;4.968;2023-07-16T13:45:59;23.93;46.39
9861;DHT22;4969;52.304;4.968;2023-07-16T13:48:26;24.09;46.12
9861;DHT22;4969;52.304;4.968;2023-07-16T13:50:53;24.09;45.86
9861;DHT22;4969;52.304;4.968;2023-07-16T13:53:20;24.29;47.83
9861;DHT22;4969;52.304;4.968;2023-07-16T13:55:47;24.46;48.62
9861;DHT22;4969;52.304;4.968;2023-07-16T13:58:14;24.50;48.31
9861;DHT22;4969;52.304;4.968;2023-07-16T14:00:41;24.74;44.93
9861;DHT22;4969;52.304;4.968;2023-07-16T14:03:09;24.43;46.24
9861;DHT22;4969;52.304;4.968;2023-07-16T14:05:35;24.50;45.52
9861;DHT22;4969;52.304;4.968;2023-07-16T14:08:04;24.19;46.24
9861;DHT22;4969;52.304;4.968;2023-07-16T14:10:30;24.09;46.44
9861;DHT22;4969;52.304;4.968;2023-07-16T14:12:57;24.54;45.70
9861;DHT22;4969;52.304;4.968;2023-07-16T14:15:24;24.89;46.92
9861;DHT22;4969;52.304;4.968;2023-07-16T14:17:50;24.64;45.38
9861;DHT22;4969;52.304;4.968;2023-07-16T14:20:18;23.95;47.07
9861;DHT22;4969;52.304;4.968;2023-07-16T14:22:45;24.08;47.66
9861;DHT22;4969;52.304;4.968;2023-07-16T14:25:11;24.54;46.04
9861;DHT22;4969;52.304;4.968;2023-07-16T14:27:38;24.35;47.05
9861;DHT22;4969;52.304;4.968;2023-07-16T14:30:06;24.09;48.48
9861;DHT22;4969;52.304;4.968;2023-07-16T14:32:34;23.92;48.49
9861;DHT22;4969;52.304;4.968;2023-07-16T14:35:00;23.95;48.78
9861;DHT22;4969;52.304;4.968;2023-07-16T14:37:29;24.56;47.44
9861;DHT22;4969;52.304;4.968;2023-07-16T14:39:55;24.50;46.54
9861;DHT22;4969;52.304;4.968;2023-07-16T14:42:22;24.58;47.44
9861;DHT22;4969;52.304;4.968;2023-07-16T14:44:48;24.57;47.73
9861;DHT22;4969;52.304;4.968;2023-07-16T14:47:15;24.89;47.23
9861;DHT22;4969;52.304;4.968;2023-07-16T14:49:42;25.08;47.22
9861;DHT22;4969;52.304;4.968;2023-07-16T14:52:09;25.18;46.35
9861;DHT22;4969;52.304;4.968;2023-07-16T14:54:36;24.72;46.32
9861;DHT22;4969;52.304;4.968;2023-07-16T14:57:03;24.88;46.91
9861;DHT22;4969;52.304;4.968;2023-07-16T14:59:30;24.96;46.20
9861;DHT22;4969;52.304;4.968;2023-07-16T15:01:57;24.75;45.92
9861;DHT22;4969;52.304;4.968;2023-07-16T15:04:24;24.69;47.61
9861;DHT22;4969;52.304;4.968;2023-07-16T15:06:50;24.35;47.87
9861;DHT22;4969;52.304;4.968;2023-07-16T15:09:17;24.27;47.81
9861;DHT22;4969;52.304;4.968;2023-07-16T15:11:45;24.35;49.09
9861;DHT22;4969;52.304;4.968;2023-07-16T15:14:11;24.39;48.95
9861;DHT22;4969;52.304;4.968;2023-07-16T15:16:38;24.12;49.99
9861;DHT22;4969;52.304;4.968;2023-07-16T15:19:05;24.17;50.30
9861;DHT22;4969;52.304;4.968;2023-07-16T15:21:31;24.36;49.94
9861;DHT22;4969;52.304;4.968;2023-07-16T15:23:58;24.32;50.14
9861;DHT22;4969;52.304;4.968;2023-07-16T15:26:24;24.12;51.27
9861;DHT22;4969;52.304;4.968;2023-07-16T15:28:54;24.21;50.52
9861;DHT22;4969;52.304;4.968;2023-07-16T15:31:21;24.02;51.35
9861;DHT22;4969;52.304;4.968;2023-07-16T15:33:52;23.31;52.58
9861;DHT22;4969;52.304;4.968;2023-07-16T15:36:19;23.68;52.26
9861;DHT22;4969;52.304;4.968;2023-07-16T15:38:45;24.06;51.89
9861;DHT22;4969;52.304;4.968;2023-07-16T15:41:13;24.48;50.56
9861;DHT22;4969;52.304;4.968;2023-07-16T15:43:41;24.13;50.80
9861;DHT22;4969;52.304;4.968;2023-07-16T15:46:11;24.27;51.02
9861;DHT22;4969;52.304;4.968;2023-07-16T15:48:38;24.19;50.39
9861;DHT22;4969;52.304;4.968;2023-07-16T15:51:07;24.47;49.82
9861;DHT22;4969;52.304;4.968;2023-07-16T15:53:34;24.47;50.54
9861;DHT22;4969;52.304;4.968;2023-07-16T15:56:00;24.57;50.06
9861;DHT22;4969;52.304;4.968;2023-07-16T15:58:27;24.43;50.65
9861;DHT22;4969;52.304;4.968;2023-07-16T16:00:54;24.54;50.19
9861;DHT22;4969;52.304;4.968;2023-07-16T16:03:22;24.27;49.55